Time;durP1;ratioP1;P1;durP2;ratioP2;P2;SDS_P1;SDS_P2;PMS_P1;PMS_P2;Temp;Humidity;BMP_temperature;BMP_pressure;BME280_temperature;BME280_humidity;BME280_pressure;Samples;Min_cycle;Max_cycle;Signal;HPM_P1;HPM_P2
2022/08/01 00:02:47;;;;;;;10.35;9.38;;;;;;;18.11;96.40;99934.67;2825101;82;21128;-88
2022/08/01 00:06:48;;;;;;;10.75;9.60;;;;;;;18.01;96.06;99930.02;2847053;81;21620;-88
2022/08/01 00:10:49;;;;;;;9.58;8.60;;;;;;;17.97;95.66;99925.50;2802864;82;22198;-88
2022/08/01 00:14:50;;;;;;;11.22;8.68;;;;;;;17.97;96.08;99919.30;2814539;82;21653;-88
2022/08/01 00:18:53;;;;;;;9.45;8.50;;;;;;;17.99;95.65;99914.57;2843023;81;21116;-87
2022/08/01 00:22:54;;;;;;;11.57;9.38;;;;;;;17.98;96.15;99911.55;2764793;83;21127;-88
2022/08/01 00:26:56;;;;;;;11.22;10.03;;;;;;;18.02;96.08;99912.06;2769312;84;21127;-88
2022/08/01 00:30:57;;;;;;;11.65;10.65;;;;;;;18.15;96.06;99908.73;2748606;84;21445;-88
2022/08/01 00:34:59;;;;;;;10.28;9.23;;;;;;;18.13;96.69;99910.25;2698812;85;22426;-89
2022/08/01 00:39:00;;;;;;;11.80;10.65;;;;;;;18.12;97.07;99910.77;2724301;84;21644;-87
2022/08/01 00:43:01;;;;;;;12.07;10.15;;;;;;;18.22;96.25;99902.92;2717640;84;21110;-88
2022/08/01 00:47:04;;;;;;;12.90;10.23;;;;;;;18.24;96.09;99904.42;2705956;85;21079;-88
2022/08/01 00:51:05;;;;;;;11.43;10.38;;;;;;;18.23;95.90;99900.55;2732596;85;21176;-87
2022/08/01 00:55:09;;;;;;;11.48;10.50;;;;;;;18.24;95.84;99897.69;2735909;84;21040;-88
2022/08/01 00:59:12;;;;;;;11.90;10.72;;;;;;;18.34;95.76;99900.09;2700275;85;21703;-88
2022/08/01 01:03:14;;;;;;;10.65;9.70;;;;;;;18.36;94.98;99899.89;2735535;85;21645;-88
2022/08/01 01:07:53;;;;;;;12.63;11.50;;;;;;;18.25;95.33;99903.89;2707085;85;21172;-87
2022/08/01 01:12:21;;;;;;;11.85;10.65;;;;;;;18.16;95.42;99909.87;2702262;85;21058;-89
2022/08/01 01:16:24;;;;;;;11.75;10.65;;;;;;;17.96;96.14;99908.22;2803839;82;21107;-88
2022/08/01 01:20:36;;;;;;;13.48;12.05;;;;;;;17.83;97.57;99908.33;2753045;83;21002;-88
2022/08/01 01:24:49;;;;;;;12.93;11.43;;;;;;;17.85;97.24;99904.13;2821205;82;21031;-88
2022/08/01 01:29:17;;;;;;;14.55;12.58;;;;;;;17.90;97.66;99900.89;2826769;82;21011;-89
2022/08/01 01:33:21;;;;;;;11.45;10.25;;;;;;;17.93;97.48;99899.99;2847013;81;21095;-88
2022/08/01 01:37:26;;;;;;;15.05;12.85;;;;;;;17.98;97.60;99903.48;2757132;83;21677;-88
2022/08/01 01:41:28;;;;;;;21.57;13.47;;;;;;;17.97;97.82;99901.81;2708886;84;21649;-88
2022/08/01 01:45:31;;;;;;;12.88;11.75;;;;;;;17.91;97.92;99891.80;2785770;83;21058;-88
2022/08/01 01:49:33;;;;;;;13.72;12.50;;;;;;;17.80;99.25;99885.83;2722801;85;21077;-89
2022/08/01 01:53:36;;;;;;;12.93;11.75;;;;;;;17.82;99.09;99889.17;2797100;82;21625;-89
2022/08/01 01:57:41;;;;;;;13.55;12.05;;;;;;;17.84;98.74;99891.69;2813496;81;21094;-89
2022/08/01 02:01:44;;;;;;;15.70;13.38;;;;;;;17.94;98.41;99886.86;2765820;82;21064;-89
2022/08/01 02:05:47;;;;;;;13.45;12.20;;;;;;;17.99;97.93;99885.82;2836239;82;21101;-87
2022/08/01 02:09:49;;;;;;;14.15;12.85;;;;;;;17.99;98.32;99883.13;2833024;82;21065;-89
2022/08/01 02:14:02;;;;;;;12.40;11.33;;;;;;;18.08;97.66;99875.84;2826912;81;21048;-87
2022/08/01 02:18:07;;;;;;;13.38;12.18;;;;;;;18.19;97.17;99883.11;2770873;84;21050;-88
2022/08/01 02:22:23;;;;;;;14.50;13.10;;;;;;;18.25;96.58;99875.62;2829575;81;21094;-88
2022/08/01 02:26:25;;;;;;;12.20;11.10;;;;;;;18.21;97.07;99876.53;2823818;82;21113;-87
2022/08/01 02:30:35;;;;;;;14.90;12.95;;;;;;;18.18;97.29;99875.56;2827781;82;21017;-88
2022/08/01 02:34:36;;;;;;;13.20;11.78;;;;;;;18.05;98.45;99879.40;2793968;82;21056;-88
2022/08/01 02:38:43;;;;;;;15.18;13.62;;;;;;;17.95;99.15;99875.08;2812475;82;21313;-88
2022/08/01 02:42:49;;;;;;;12.33;11.18;;;;;;;17.89;99.68;99869.63;2826401;81;21584;-86
2022/08/01 02:47:02;;;;;;;12.43;11.35;;;;;;;17.94;99.83;99872.06;2806646;82;21119;-89
2022/08/01 02:51:06;;;;;;;13.45;12.25;;;;;;;18.08;98.28;99868.27;2810642;82;21134;-88
2022/08/01 02:55:09;;;;;;;12.15;10.95;;;;;;;18.18;98.43;99882.29;2820328;82;21498;-87
2022/08/01 02:59:18;;;;;;;12.75;11.43;;;;;;;18.22;97.79;99871.47;2784300;82;21018;-88
2022/08/01 03:03:20;;;;;;;14.83;11.55;;;;;;;18.27;98.49;99875.77;2794681;82;21063;-90
2022/08/01 03:07:23;;;;;;;12.37;11.28;;;;;;;18.25;98.68;99866.20;2823103;81;21381;-89
2022/08/01 03:11:28;;;;;;;14.18;12.80;;;;;;;18.26;99.21;99871.91;2799668;82;21134;-88
2022/08/01 03:15:33;;;;;;;18.15;13.85;;;;;;;18.32;98.75;99868.49;2817019;81;21062;-88
2022/08/01 03:19:40;;;;;;;14.70;11.53;;;;;;;18.36;98.97;99875.66;2803440;83;21067;-88
2022/08/01 03:23:43;;;;;;;13.03;11.55;;;;;;;18.42;98.99;99883.02;2815456;82;21827;-89
2022/08/01 03:27:48;;;;;;;11.05;9.95;;;;;;;18.47;98.86;99885.13;2811813;82;21050;-88
2022/08/01 03:31:50;;;;;;;12.75;11.30;;;;;;;18.52;98.76;99884.06;2795681;83;21040;-89
2022/08/01 03:35:54;;;;;;;12.80;10.95;;;;;;;18.50;98.85;99880.73;2804170;83;21064;-88
2022/08/01 03:40:09;;;;;;;10.23;9.25;;;;;;;18.46;99.46;99882.11;2830653;81;21078;-88
2022/08/01 03:44:16;;;;;;;11.40;10.20;;;;;;;18.44;100.00;99883.66;2780934;83;21074;-88
2022/08/01 03:48:19;;;;;;;12.60;11.25;;;;;;;18.46;100.00;99884.30;2828709;82;21062;-88
2022/08/01 03:52:22;;;;;;;21.48;9.78;;;;;;;18.48;100.00;99886.30;2844265;81;21047;-88
2022/08/01 03:56:25;;;;;;;13.10;11.50;;;;;;;18.54;100.00;99887.41;2826859;82;21093;-89
2022/08/01 04:00:27;;;;;;;12.00;10.58;;;;;;;18.55;100.00;99887.73;2842929;82;21091;-88
2022/08/01 04:04:29;;;;;;;12.65;11.45;;;;;;;18.62;100.00;99892.67;2840951;82;21058;-88
2022/08/01 04:08:38;;;;;;;12.37;11.25;;;;;;;18.67;100.00;99894.81;2845340;82;21037;-88
2022/08/01 04:12:40;;;;;;;11.18;10.18;;;;;;;18.76;99.87;99900.39;2845595;81;21025;-87
2022/08/01 04:16:41;;;;;;;10.53;9.43;;;;;;;18.91;98.95;99896.34;2840860;81;21019;-89
2022/08/01 04:20:42;;;;;;;12.15;10.10;;;;;;;19.05;97.96;99901.89;2839748;81;21110;-88
2022/08/01 04:24:50;;;;;;;11.57;10.45;;;;;;;19.19;97.57;99906.40;2851076;81;21002;-90
2022/08/01 04:28:54;;;;;;;10.15;9.13;;;;;;;19.26;97.01;99904.63;2797135;81;21015;-91
2022/08/01 04:32:59;;;;;;;10.60;9.70;;;;;;;19.32;96.88;99902.17;2813583;82;21125;-90
2022/08/01 04:37:01;;;;;;;14.00;10.13;;;;;;;19.44;96.81;99901.95;2849247;81;21027;-87
2022/08/01 04:41:06;;;;;;;12.90;10.43;;;;;;;19.59;96.73;99902.41;2813674;82;21785;-88
2022/08/01 04:45:09;;;;;;;9.70;8.70;;;;;;;19.74;97.10;99904.50;2855301;81;21404;-87
2022/08/01 04:49:11;;;;;;;7.83;7.08;;;;;;;19.89;97.08;99903.58;2845701;82;21331;-87
2022/08/01 04:53:16;;;;;;;8.78;6.62;;;;;;;20.12;96.61;99904.18;2803016;82;21648;-87
2022/08/01 04:57:17;;;;;;;5.90;4.95;;;;;;;20.34;93.96;99901.39;2776168;82;21530;-87
2022/08/01 05:01:19;;;;;;;7.50;6.40;;;;;;;20.59;91.32;99900.88;2825436;80;21373;-87
2022/08/01 05:05:20;;;;;;;5.70;5.20;;;;;;;20.78;90.38;99901.16;2839977;81;21641;-86
2022/08/01 05:09:22;;;;;;;8.83;5.37;;;;;;;20.95;89.05;99901.67;2841750;81;21016;-87
2022/08/01 05:13:23;;;;;;;5.17;4.75;;;;;;;21.07;88.19;99899.21;2843586;81;21074;-87
2022/08/01 05:17:24;;;;;;;6.60;4.87;;;;;;;21.23;87.06;99899.33;2803705;83;21057;-87
2022/08/01 05:21:26;;;;;;;10.40;4.95;;;;;;;21.37;85.77;99900.18;2822258;81;21086;-87
2022/08/01 05:25:28;;;;;;;7.90;4.55;;;;;;;21.51;85.36;99908.63;2781841;84;21029;-88
2022/08/01 05:29:29;;;;;;;4.42;4.03;;;;;;;21.69;86.31;99908.02;2849719;81;21034;-88
2022/08/01 05:33:30;;;;;;;5.05;4.55;;;;;;;21.79;84.94;99898.12;2833690;82;21322;-88
2022/08/01 05:37:31;;;;;;;4.75;3.58;;;;;;;21.95;84.70;99898.73;2845999;82;21055;-88
2022/08/01 05:41:33;;;;;;;6.90;4.75;;;;;;;22.06;83.67;99894.55;2814302;81;21050;-87
2022/08/01 05:45:34;;;;;;;5.47;4.28;;;;;;;22.20;83.94;99895.34;2821905;82;20990;-87
2022/08/01 05:49:36;;;;;;;5.10;4.65;;;;;;;22.32;83.58;99899.62;2825430;83;20987;-87
2022/08/01 05:53:37;;;;;;;5.92;5.42;;;;;;;22.49;84.02;99905.42;2837995;82;21199;-88
2022/08/01 05:57:38;;;;;;;6.90;4.72;;;;;;;22.68;83.12;99899.09;2791973;82;21564;-87
2022/08/01 06:01:39;;;;;;;5.97;4.70;;;;;;;22.90;82.95;99901.48;2838950;81;21072;-88
2022/08/01 06:05:40;;;;;;;5.78;5.28;;;;;;;23.09;80.71;99898.87;2809990;82;21133;-85
2022/08/01 06:09:41;;;;;;;4.92;4.40;;;;;;;23.25;78.88;99901.09;2832262;82;21042;-87
2022/08/01 06:13:43;;;;;;;5.92;4.08;;;;;;;23.37;78.55;99912.58;2853867;82;21006;-87
2022/08/01 06:17:44;;;;;;;5.90;4.40;;;;;;;23.41;77.35;99912.47;2802350;82;21128;-86
2022/08/01 06:21:45;;;;;;;4.33;3.40;;;;;;;23.36;77.21;99907.70;2828555;81;20967;-87
2022/08/01 06:25:47;;;;;;;5.92;3.20;;;;;;;23.09;75.06;99913.28;2842956;82;21039;-87
2022/08/01 06:29:48;;;;;;;3.83;3.52;;;;;;;23.03;76.89;99916.84;2859210;82;21034;-87
2022/08/01 06:33:50;;;;;;;4.00;3.60;;;;;;;22.91;76.52;99909.92;2816109;82;21043;-85
2022/08/01 06:37:51;;;;;;;4.92;2.77;;;;;;;22.84;76.59;99917.27;2796049;81;21014;-87
2022/08/01 06:41:52;;;;;;;5.05;4.55;;;;;;;22.81;76.70;99908.21;2835816;82;21083;-85
2022/08/01 06:45:54;;;;;;;3.47;3.17;;;;;;;22.85;78.23;99918.93;2800442;81;21034;-86
2022/08/01 06:49:55;;;;;;;4.33;3.27;;;;;;;22.78;77.39;99914.89;2816882;83;21054;-85
2022/08/01 06:53:56;;;;;;;6.35;3.72;;;;;;;22.84;78.09;99926.76;2831632;82;21083;-86
2022/08/01 06:57:58;;;;;;;4.30;2.80;;;;;;;22.80;76.44;99917.40;2815771;83;21089;-85
2022/08/01 07:02:00;;;;;;;4.83;3.77;;;;;;;22.85;77.61;99929.77;2800226;83;21093;-87
2022/08/01 07:06:02;;;;;;;4.35;3.58;;;;;;;22.74;76.27;99935.86;2814969;82;21043;-86
2022/08/01 07:10:04;;;;;;;4.55;3.50;;;;;;;22.83;76.04;99933.23;2797100;82;21084;-87
2022/08/01 07:14:06;;;;;;;6.75;3.05;;;;;;;22.92;76.45;99934.63;2828743;81;21109;-87
2022/08/01 07:18:07;;;;;;;3.47;2.98;;;;;;;22.94;76.45;99937.95;2824762;82;21037;-87
2022/08/01 07:22:09;;;;;;;4.70;4.30;;;;;;;23.01;77.09;99943.89;2851593;82;21030;-87
2022/08/01 07:26:10;;;;;;;8.65;4.35;;;;;;;23.11;75.80;99941.52;2828511;80;21073;-87
2022/08/01 07:30:12;;;;;;;5.75;3.35;;;;;;;23.20;75.42;99942.10;2850900;81;21027;-87
2022/08/01 07:34:13;;;;;;;5.22;3.90;;;;;;;23.24;75.79;99948.23;2755153;85;21040;-86
2022/08/01 07:38:16;;;;;;;3.98;3.62;;;;;;;23.27;76.58;99956.48;2773085;83;21118;-87
2022/08/01 07:42:18;;;;;;;6.12;4.58;;;;;;;23.35;75.88;99949.97;2839065;81;21037;-86
2022/08/01 07:46:19;;;;;;;4.25;3.83;;;;;;;23.47;76.24;99957.72;2857557;82;21022;-87
2022/08/01 07:50:20;;;;;;;5.05;4.55;;;;;;;23.60;75.28;99957.33;2848614;81;21113;-85
2022/08/01 07:54:23;;;;;;;3.40;2.83;;;;;;;23.62;76.68;99957.40;2828874;83;21022;-86
2022/08/01 07:58:24;;;;;;;4.37;3.98;;;;;;;23.55;76.22;99960.70;2802514;83;21147;-87
2022/08/01 08:02:25;;;;;;;4.25;3.65;;;;;;;23.59;75.39;99959.20;2777296;84;20989;-86
2022/08/01 08:11:04;;;;;;;9.88;4.75;;;;;;;23.84;74.93;99961.63;2823364;81;72161;-62
2022/08/01 08:15:06;;;;;;;5.20;4.33;;;;;;;24.08;75.28;99962.17;2702901;85;21118;-61
2022/08/01 08:19:07;;;;;;;5.03;4.17;;;;;;;24.24;72.71;99970.26;2823850;82;20952;-63
2022/08/01 08:27:30;;;;;;;6.75;3.72;;;;;;;24.58;72.68;99963.65;2801013;81;21123;-61
2022/08/01 08:31:45;;;;;;;3.80;3.50;;;;;;;24.76;73.54;99977.27;2823721;82;21091;-62
2022/08/01 08:36:01;;;;;;;7.60;4.75;;;;;;;24.72;72.56;99962.95;2828887;82;21117;-61
2022/08/01 08:40:04;;;;;;;;;;;;;;;24.63;72.43;99970.59;2858446;81;21051;-62
2022/08/01 08:44:08;;;;;;;5.72;3.90;;;;;;;24.77;74.73;99972.67;2827616;82;20079;-62
2022/08/01 08:48:09;;;;;;;3.30;2.92;;;;;;;25.09;72.91;99965.14;2835275;82;21041;-62
2022/08/01 08:52:12;;;;;;;4.03;3.00;;;;;;;25.09;70.04;99971.10;2783636;83;21023;-62
2022/08/01 08:56:16;;;;;;;5.10;3.65;;;;;;;25.41;69.96;99968.16;2776873;84;21036;-61
2022/08/01 09:00:17;;;;;;;6.28;3.90;;;;;;;25.78;70.29;99974.00;2819815;81;21133;-61
2022/08/01 09:04:22;;;;;;;3.45;3.15;;;;;;;25.93;68.43;99968.92;2794170;80;71141;-87
2022/08/01 09:08:24;;;;;;;7.33;3.98;;;;;;;25.91;68.17;99972.94;2748181;81;21095;-86
2022/08/01 09:12:25;;;;;;;4.47;4.15;;;;;;;25.92;68.46;99971.88;2806583;83;21418;-85
2022/08/01 09:16:27;;;;;;;4.12;3.80;;;;;;;26.16;68.55;99971.91;2811059;82;21146;-87
2022/08/01 09:20:29;;;;;;;4.55;3.58;;;;;;;26.44;66.92;99973.09;2781634;83;21296;-87
2022/08/01 09:24:31;;;;;;;5.17;3.33;;;;;;;26.80;67.74;99964.30;2760120;82;21023;-87
2022/08/01 09:28:33;;;;;;;3.92;2.50;;;;;;;27.17;65.27;99953.56;2789251;83;21032;-87
2022/08/01 09:32:35;;;;;;;4.90;3.87;;;;;;;27.22;64.68;99954.50;2811523;82;21050;-87
2022/08/01 09:36:58;;;;;;;5.42;2.95;;;;;;;27.49;64.96;99953.86;2804743;82;21566;-87
2022/08/01 09:41:01;;;;;;;2.67;2.27;;;;;;;27.50;64.28;99954.70;2791678;83;21032;-87
2022/08/01 09:45:02;;;;;;;5.20;2.60;;;;;;;27.44;63.93;99945.59;2813557;82;21674;-86
2022/08/01 09:49:06;;;;;;;3.27;3.08;;;;;;;27.34;63.37;99946.23;2801232;82;21017;-86
2022/08/01 09:53:09;;;;;;;4.17;2.95;;;;;;;27.01;64.11;99967.47;2794199;83;21055;-87
2022/08/01 09:57:16;;;;;;;4.08;2.87;;;;;;;26.88;64.67;99959.84;2776841;83;21038;-88
2022/08/01 10:01:22;;;;;;;2.92;2.70;;;;;;;26.84;64.44;99955.11;2823508;82;21067;-86
2022/08/01 10:05:34;;;;;;;4.08;3.08;;;;;;;26.89;63.30;99966.96;2784817;82;21057;-85
2022/08/01 10:09:36;;;;;;;5.33;3.15;;;;;;;27.09;63.36;99959.72;2791095;83;21061;-86
2022/08/01 10:13:38;;;;;;;3.98;2.87;;;;;;;27.25;62.89;99947.73;2805237;82;21091;-87
2022/08/01 10:17:45;;;;;;;7.37;2.90;;;;;;;27.45;63.08;99949.98;2798121;83;21041;-87
2022/08/01 10:21:50;;;;;;;4.15;3.10;;;;;;;27.72;64.34;99944.44;2811059;82;21042;-87
2022/08/01 10:25:54;;;;;;;4.43;4.00;;;;;;;27.86;62.80;99942.19;2801193;82;21058;-87
2022/08/01 10:30:03;;;;;;;4.83;3.05;;;;;;;28.18;63.37;99947.08;2805041;82;21043;-86
2022/08/01 10:34:02;;;;;;;3.35;2.80;;;;;;;28.37;62.63;99948.97;2813088;82;21086;-86
2022/08/01 10:38:03;;;;;;;4.05;2.80;;;;;;;28.33;60.24;99939.09;2787819;82;21089;-87
2022/08/01 10:42:06;;;;;;;6.97;4.37;;;;;;;28.05;61.74;99942.21;2783836;83;21117;-87
2022/08/01 10:46:08;;;;;;;4.37;3.60;;;;;;;27.84;62.32;99939.72;2786303;82;21029;-85
2022/08/01 10:50:45;;;;;;;4.03;3.12;;;;;;;27.69;62.94;99938.11;2814855;81;21058;-86
2022/08/01 10:54:47;;;;;;;4.00;2.45;;;;;;;27.76;62.72;99934.14;2779161;82;21026;-88
2022/08/01 10:58:49;;;;;;;7.65;2.75;;;;;;;27.50;61.40;99936.40;2770660;82;21034;-87
2022/08/01 11:03:02;;;;;;;2.83;2.52;;;;;;;27.71;64.43;99931.33;2826056;82;21154;-87
2022/08/01 11:07:15;;;;;;;2.05;1.35;;;;;;;27.66;61.71;99935.33;2738769;84;21050;-87
2022/08/01 11:11:18;;;;;;;3.80;2.55;;;;;;;28.16;59.96;99932.28;2693302;85;21037;-87
2022/08/01 11:15:24;;;;;;;3.45;2.58;;;;;;;28.36;60.03;99937.22;2724395;84;21591;-87
2022/08/01 11:19:31;;;;;;;6.10;3.02;;;;;;;28.19;61.48;99935.06;2752959;84;20997;-87
2022/08/01 11:23:38;;;;;;;3.37;3.08;;;;;;;27.70;61.86;99920.09;2735935;85;21083;-87
2022/08/01 11:27:40;;;;;;;3.12;2.92;;;;;;;27.59;61.90;99942.87;2743353;84;21046;-87
2022/08/01 11:31:41;;;;;;;6.15;3.58;;;;;;;27.29;62.16;99945.31;2719026;85;21028;-87
2022/08/01 11:36:17;;;;;;;5.97;4.05;;;;;;;26.83;63.95;99957.00;2763953;84;21071;-87
2022/08/01 11:40:25;;;;;;;6.87;4.67;;;;;;;26.32;70.63;99958.92;2754156;83;21069;-86
2022/08/01 11:44:27;;;;;;;5.08;4.67;;;;;;;26.12;69.74;99961.16;2725271;84;21166;-88
2022/08/01 11:48:29;;;;;;;4.30;4.00;;;;;;;26.32;67.97;99960.29;2778941;82;21042;-87
2022/08/01 11:52:36;;;;;;;4.20;3.90;;;;;;;26.34;67.02;99954.09;2813073;82;21111;-87
2022/08/01 11:56:38;;;;;;;5.08;4.67;;;;;;;26.51;65.85;99965.59;2817937;82;21036;-86
2022/08/01 12:00:39;;;;;;;4.65;4.25;;;;;;;26.69;66.71;99955.61;2789925;82;21056;-87
2022/08/01 12:05:07;;;;;;;5.28;4.62;;;;;;;26.91;67.78;99962.09;2808364;82;21048;-86
2022/08/01 12:09:21;;;;;;;3.85;2.77;;;;;;;27.21;65.33;99963.76;2820262;82;21058;-87
2022/08/01 12:13:22;;;;;;;6.10;5.20;;;;;;;27.59;65.07;99951.06;2795837;82;21146;-87
2022/08/01 12:17:38;;;;;;;6.17;3.85;;;;;;;27.63;63.69;99948.12;2780665;83;21180;-85
2022/08/01 12:21:39;;;;;;;5.75;4.80;;;;;;;27.75;63.82;99953.50;2781769;83;21133;-87
2022/08/01 12:25:43;;;;;;;5.97;4.03;;;;;;;27.76;62.84;99953.27;2792766;83;21032;-86
2022/08/01 12:29:45;;;;;;;4.95;4.40;;;;;;;27.81;63.83;99953.89;2779352;83;21077;-87
2022/08/01 12:33:47;;;;;;;5.17;4.08;;;;;;;27.86;62.13;99955.86;2791435;82;21006;-87
2022/08/01 12:38:05;;;;;;;4.42;4.03;;;;;;;27.76;63.08;99947.80;2806094;82;21086;-86
2022/08/01 12:42:11;;;;;;;4.45;4.03;;;;;;;27.78;65.18;99949.74;2802954;82;21058;-88
2022/08/01 12:46:15;;;;;;;4.55;4.10;;;;;;;28.07;63.18;99949.62;2797184;82;21086;-88
2022/08/01 12:50:21;;;;;;;6.35;4.10;;;;;;;28.19;62.68;99944.62;2799328;83;21021;-87
2022/08/01 12:54:25;;;;;;;3.98;3.40;;;;;;;28.39;62.51;99945.44;2810293;82;21028;-86
2022/08/01 12:58:33;;;;;;;3.87;3.45;;;;;;;28.48;62.33;99939.83;2812009;82;21679;-88
2022/08/01 13:02:36;;;;;;;5.72;3.22;;;;;;;28.49;60.91;99916.02;2821184;81;21037;-87
2022/08/01 13:06:37;;;;;;;2.47;2.27;;;;;;;28.49;60.91;99916.02;2729200;85;21052;-87
2022/08/01 13:10:39;;;;;;;2.55;2.37;;;;;;;28.37;60.82;99942.13;2718824;86;21077;-86
2022/08/01 13:14:40;;;;;;;4.40;2.83;;;;;;;28.37;60.82;99942.13;2686458;85;21264;-88
2022/08/01 13:18:57;;;;;;;2.83;2.33;;;;;;;28.42;60.91;99940.85;2687359;85;21106;-88
2022/08/01 13:23:19;;;;;;;2.65;2.27;;;;;;;28.67;60.01;99945.51;2712950;85;21018;-89
2022/08/01 13:27:29;;;;;;;2.70;2.50;;;;;;;28.46;60.23;99950.20;2714591;84;21090;-87
2022/08/01 13:31:33;;;;;;;3.22;1.40;;;;;;;28.11;61.97;99921.80;2741199;84;21010;-89
2022/08/01 13:35:35;;;;;;;12.88;2.10;;;;;;;28.11;61.97;99921.80;2712299;85;21125;-88
2022/08/01 13:44:15;;;;;;;1.72;1.50;;;;;;;28.53;59.90;99917.19;2813986;82;21083;-88
2022/08/01 13:48:16;;;;;;;2.40;2.20;;;;;;;28.64;59.52;99943.57;2908340;79;21102;-88
2022/08/01 13:52:18;;;;;;;1.92;1.55;;;;;;;28.63;60.81;99892.67;2830807;82;20996;-90
2022/08/01 13:56:20;;;;;;;5.58;2.30;;;;;;;28.90;59.32;99933.50;2854330;81;20999;-89
2022/08/01 14:00:22;;;;;;;2.27;1.85;;;;;;;29.01;60.99;99924.86;2849795;80;20999;-87
2022/08/01 14:04:23;;;;;;;3.25;1.95;;;;;;;29.23;59.33;99934.39;2881694;79;21054;-87
2022/08/01 14:08:25;;;;;;;1.20;1.02;;;;;;;28.98;59.29;99943.17;2905128;79;21502;-88
2022/08/01 14:12:27;;;;;;;2.25;1.60;;;;;;;28.89;59.30;99941.43;2906155;79;21054;-88
2022/08/01 14:16:29;;;;;;;1.10;1.00;;;;;;;28.68;59.47;99960.84;2921780;80;20991;-88
2022/08/01 14:20:30;;;;;;;1.40;1.20;;;;;;;28.29;60.35;99968.00;2861920;80;21023;-88
2022/08/01 14:24:32;;;;;;;4.67;1.47;;;;;;;28.69;61.80;99963.86;2896472;79;20952;-87
2022/08/01 14:28:34;;;;;;;1.92;1.60;;;;;;;28.75;60.33;99953.28;2901082;80;21034;-87
2022/08/01 14:32:35;;;;;;;1.75;1.15;;;;;;;28.66;62.13;99974.80;2911747;80;21028;-88
2022/08/01 14:36:37;;;;;;;1.75;1.10;;;;;;;28.45;61.10;99982.73;2881741;80;21591;-89
2022/08/01 14:40:40;;;;;;;1.70;1.27;;;;;;;28.39;61.83;99988.38;2826422;80;20975;-88
2022/08/01 14:44:42;;;;;;;2.00;1.90;;;;;;;28.10;62.34;99993.41;2798179;83;21043;-89
2022/08/01 14:48:45;;;;;;;2.27;1.10;;;;;;;27.59;64.85;99963.35;2760929;83;21359;-88
2022/08/01 14:52:46;;;;;;;0.50;0.40;;;;;;;27.22;66.37;100011.83;2883390;80;21576;-90
2022/08/01 14:56:48;;;;;;;3.08;1.50;;;;;;;26.79;66.75;100003.57;2869816;80;21075;-89
2022/08/01 15:00:53;;;;;;;2.42;0.37;;;;;;;26.91;67.42;100011.20;2880909;80;21081;-89
2022/08/01 15:04:53;;;;;;;0.65;0.65;;;;;;;27.26;65.76;100019.52;2895386;80;21095;-89
2022/08/01 15:08:55;;;;;;;0.60;0.30;;;;;;;27.36;65.06;100021.09;2855633;81;21012;-88
2022/08/01 15:12:57;;;;;;;2.72;0.60;;;;;;;27.27;65.29;100041.66;2863143;80;21605;-89
2022/08/01 15:16:59;;;;;;;0.20;0.10;;;;;;;27.15;66.74;100027.53;2882093;80;23475;-89
2022/08/01 15:21:01;;;;;;;0.72;0.30;;;;;;;26.84;67.68;100030.14;2814354;80;21082;-89
2022/08/01 15:25:04;;;;;;;1.15;0.57;;;;;;;26.81;68.74;100044.53;2822592;81;21008;-89
2022/08/01 15:29:06;;;;;;;0.30;0.30;;;;;;;27.01;68.99;100052.88;2840737;81;21059;-88
2022/08/01 15:33:07;;;;;;;0.25;0.25;;;;;;;26.79;66.67;100047.22;2812672;81;21063;-91
2022/08/01 15:37:10;;;;;;;0.28;0.20;;;;;;;26.11;69.76;100051.64;2832100;81;21027;-91
2022/08/01 15:41:11;;;;;;;0.10;0.10;;;;;;;25.66;71.14;100060.61;2786872;82;21043;-88
2022/08/01 15:45:17;;;;;;;3.10;0.28;;;;;;;25.36;73.00;100057.31;2824975;81;21057;-89
2022/08/01 15:49:17;;;;;;;0.20;0.20;;;;;;;24.86;74.10;100067.86;2821577;82;21107;-91
2022/08/01 15:53:18;;;;;;;2.05;0.10;;;;;;;24.62;76.54;100061.37;2832422;81;21567;-90
2022/08/01 15:57:20;;;;;;;0.57;0.30;;;;;;;24.57;74.19;100074.81;2837467;82;21068;-91
2022/08/01 16:01:21;;;;;;;0.75;0.30;;;;;;;24.47;76.33;100075.33;2825078;81;21652;-89
2022/08/01 16:05:23;;;;;;;2.15;1.15;;;;;;;24.46;77.68;100084.00;2751985;82;21177;-90
2022/08/01 16:09:24;;;;;;;0.60;0.50;;;;;;;24.29;78.26;100086.45;2825510;81;21075;-91
2022/08/01 16:13:26;;;;;;;1.20;0.25;;;;;;;24.13;79.36;100097.86;2836221;81;21083;-89
2022/08/01 16:17:27;;;;;;;1.57;0.33;;;;;;;23.99;81.04;100099.81;2820070;81;21118;-90
2022/08/01 16:21:28;;;;;;;0.80;0.50;;;;;;;23.93;81.96;100099.66;2795766;82;21005;-90
2022/08/01 16:25:30;;;;;;;1.98;0.57;;;;;;;23.70;86.25;100099.38;2816468;82;21087;-90
2022/08/01 16:29:53;;;;;;;1.90;0.80;;;;;;;23.61;87.07;100101.52;2815536;81;21509;-86
2022/08/01 16:33:54;;;;;;;1.00;0.90;;;;;;;23.58;87.21;100107.35;2864212;80;21007;-90
2022/08/01 16:37:56;;;;;;;3.12;1.12;;;;;;;23.54;88.60;100099.65;2841940;82;21106;-90
2022/08/01 16:41:57;;;;;;;3.58;1.85;;;;;;;23.31;91.00;100103.41;2925347;79;21031;-89
2022/08/01 16:46:29;;;;;;;3.70;0.82;;;;;;;23.35;90.40;100100.57;2914505;79;21050;-87
2022/08/01 16:50:31;;;;;;;2.17;1.27;;;;;;;23.35;90.23;100095.14;2892422;80;21016;-90
2022/08/01 16:54:32;;;;;;;1.15;0.90;;;;;;;23.39;90.86;100095.05;2831397;80;21052;-89
2022/08/01 16:58:33;;;;;;;1.90;1.10;;;;;;;23.43;91.04;100093.56;2889098;80;21007;-87
2022/08/01 17:02:38;;;;;;;2.47;1.05;;;;;;;23.47;90.03;100100.22;2871211;81;21394;-89
2022/08/01 17:06:39;;;;;;;2.30;2.10;;;;;;;23.54;89.86;100102.36;2890738;80;21076;-89
2022/08/01 17:10:41;;;;;;;4.33;1.32;;;;;;;23.53;89.70;100103.41;2881809;79;21517;-87
2022/08/01 17:14:42;;;;;;;1.20;1.10;;;;;;;23.43;88.01;100094.06;2934052;78;21053;-90
2022/08/01 17:18:43;;;;;;;2.15;1.45;;;;;;;23.51;87.62;100098.73;2787743;82;21076;-88
2022/08/01 17:22:45;;;;;;;2.12;1.40;;;;;;;23.46;87.59;100096.34;2800174;82;21130;-89
2022/08/01 17:26:46;;;;;;;1.02;0.93;;;;;;;23.47;87.27;100101.57;2909856;80;21558;-90
2022/08/01 17:30:48;;;;;;;1.55;1.45;;;;;;;23.50;87.02;100105.20;2923522;78;21042;-89
2022/08/01 17:34:49;;;;;;;1.70;1.60;;;;;;;23.55;86.67;100104.56;2911053;80;21097;-87
2022/08/01 17:38:50;;;;;;;1.40;1.30;;;;;;;23.45;86.42;100100.95;2929878;80;21057;-90
2022/08/01 17:42:52;;;;;;;1.37;1.25;;;;;;;23.45;86.27;100109.10;2925705;80;20995;-89
2022/08/01 17:46:53;;;;;;;1.67;1.57;;;;;;;23.45;85.92;100113.17;2935034;78;21097;-90
2022/08/01 17:50:55;;;;;;;2.10;1.30;;;;;;;23.46;86.02;100114.83;2884463;78;21003;-90
2022/08/01 17:54:57;;;;;;;1.57;1.10;;;;;;;23.48;86.23;100122.23;2875504;80;21028;-90
2022/08/01 17:58:59;;;;;;;1.90;1.70;;;;;;;23.48;85.88;100123.59;2900880;80;21066;-89
2022/08/01 18:03:01;;;;;;;1.55;1.45;;;;;;;23.50;86.09;100127.46;2920458;78;21010;-87
2022/08/01 18:07:03;;;;;;;2.42;1.60;;;;;;;23.47;86.54;100140.92;2913506;80;21043;-89
2022/08/01 18:11:05;;;;;;;1.47;1.37;;;;;;;23.44;86.55;100138.65;2906791;80;21043;-90
2022/08/01 18:15:09;;;;;;;1.57;1.10;;;;;;;23.42;86.93;100152.11;2899347;79;21034;-89
2022/08/01 18:19:11;;;;;;;1.37;1.27;;;;;;;23.33;87.46;100152.87;2894522;80;21617;-90
2022/08/01 18:23:13;;;;;;;1.98;1.30;;;;;;;23.25;87.88;100152.55;2875083;80;22166;-87
2022/08/01 18:27:14;;;;;;;2.22;2.05;;;;;;;23.29;87.84;100157.06;2896899;80;20984;-88
2022/08/01 18:31:16;;;;;;;1.85;1.65;;;;;;;23.25;87.35;100155.26;2903022;80;21058;-90
2022/08/01 18:39:54;;;;;;;1.92;1.57;;;;;;;23.31;87.21;100159.03;2878619;81;21098;-87
2022/08/01 18:43:57;;;;;;;2.62;1.70;;;;;;;23.30;86.79;100169.08;2858982;81;21027;-87
2022/08/01 18:48:00;;;;;;;2.50;1.80;;;;;;;23.29;86.74;100178.27;2853102;80;21039;-90
2022/08/01 18:52:05;;;;;;;5.43;2.00;;;;;;;23.18;87.38;100183.76;2857250;81;21695;-89
2022/08/01 18:56:10;;;;;;;6.15;2.90;;;;;;;22.99;88.47;100192.25;2899445;80;21011;-85
2022/08/01 19:00:12;;;;;;;4.97;1.95;;;;;;;22.98;88.23;100191.95;2861960;80;21074;-85
2022/08/01 19:04:23;;;;;;;4.60;3.83;;;;;;;22.92;88.51;100196.33;2862753;81;21024;-90
2022/08/01 19:08:30;;;;;;;3.12;2.87;;;;;;;22.94;88.10;100204.27;2871236;80;21059;-89
2022/08/01 19:12:46;;;;;;;3.10;2.83;;;;;;;22.74;89.15;100206.45;2787745;82;21047;-90
2022/08/01 19:16:51;;;;;;;3.72;3.02;;;;;;;22.33;92.09;100219.09;2767281;83;21090;-91